sensor_id;sensor_type;location;lat;lon;timestamp;P1;durP1;ratioP1;P2;durP2;ratioP2
53781;SDS011;39692;53.114;7.060;2022-10-26T00:02:13;9.90;;;5.82;;
53781;SDS011;39692;53.114;7.060;2022-10-26T00:04:39;13.18;;;6.53;;
53781;SDS011;39692;53.114;7.060;2022-10-26T00:07:04;10.77;;;5.95;;
53781;SDS011;39692;53.114;7.060;2022-10-26T00:09:30;13.65;;;6.68;;
53781;SDS011;39692;53.114;7.060;2022-10-26T00:11:56;10.82;;;6.13;;
53781;SDS011;39692;53.114;7.060;2022-10-26T00:14:22;10.25;;;5.82;;
53781;SDS011;39692;53.114;7.060;2022-10-26T00:16:48;12.55;;;6.75;;
53781;SDS011;39692;53.114;7.060;2022-10-26T00:19:13;14.02;;;6.38;;
53781;SDS011;39692;53.114;7.060;2022-10-26T00:21:39;10.15;;;5.78;;
53781;SDS011;39692;53.114;7.060;2022-10-26T00:24:05;10.43;;;6.25;;
53781;SDS011;39692;53.114;7.060;2022-10-26T00:26:30;14.40;;;7.72;;
53781;SDS011;39692;53.114;7.060;2022-10-26T00:28:56;15.30;;;7.25;;
53781;SDS011;39692;53.114;7.060;2022-10-26T00:31:22;9.27;;;5.47;;
53781;SDS011;39692;53.114;7.060;2022-10-26T00:33:52;12.23;;;6.22;;
53781;SDS011;39692;53.114;7.060;2022-10-26T00:36:19;11.50;;;6.20;;
53781;SDS011;39692;53.114;7.060;2022-10-26T00:38:49;9.65;;;6.38;;
53781;SDS011;39692;53.114;7.060;2022-10-26T00:41:23;13.88;;;7.03;;
53781;SDS011;39692;53.114;7.060;2022-10-26T00:43:51;12.75;;;7.07;;
53781;SDS011;39692;53.114;7.060;2022-10-26T00:46:19;10.63;;;6.03;;
53781;SDS011;39692;53.114;7.060;2022-10-26T00:48:49;14.13;;;6.10;;
53781;SDS011;39692;53.114;7.060;2022-10-26T00:51:19;13.23;;;7.15;;
53781;SDS011;39692;53.114;7.060;2022-10-26T00:53:59;10.82;;;6.72;;
53781;SDS011;39692;53.114;7.060;2022-10-26T00:56:28;14.23;;;6.68;;
53781;SDS011;39692;53.114;7.060;2022-10-26T00:58:56;12.82;;;6.40;;
53781;SDS011;39692;53.114;7.060;2022-10-26T01:01:29;10.23;;;6.70;;
53781;SDS011;39692;53.114;7.060;2022-10-26T01:03:57;10.82;;;5.97;;
53781;SDS011;39692;53.114;7.060;2022-10-26T01:06:25;10.85;;;6.13;;
53781;SDS011;39692;53.114;7.060;2022-10-26T01:08:55;14.23;;;6.80;;
53781;SDS011;39692;53.114;7.060;2022-10-26T01:11:20;10.35;;;6.35;;
53781;SDS011;39692;53.114;7.060;2022-10-26T01:13:46;13.18;;;6.40;;
53781;SDS011;39692;53.114;7.060;2022-10-26T01:19:03;10.55;;;6.80;;
53781;SDS011;39692;53.114;7.060;2022-10-26T01:24:44;10.38;;;6.43;;
53781;SDS011;39692;53.114;7.060;2022-10-26T01:27:31;9.63;;;5.85;;
53781;SDS011;39692;53.114;7.060;2022-10-26T01:38:26;14.90;;;7.05;;
53781;SDS011;39692;53.114;7.060;2022-10-26T01:43:53;11.45;;;5.50;;
53781;SDS011;39692;53.114;7.060;2022-10-26T01:46:25;12.10;;;7.32;;
53781;SDS011;39692;53.114;7.060;2022-10-26T01:48:55;11.48;;;6.38;;
53781;SDS011;39692;53.114;7.060;2022-10-26T01:51:25;9.80;;;6.10;;
53781;SDS011;39692;53.114;7.060;2022-10-26T01:53:52;12.43;;;6.53;;
53781;SDS011;39692;53.114;7.060;2022-10-26T01:56:20;10.40;;;6.15;;
53781;SDS011;39692;53.114;7.060;2022-10-26T01:58:52;8.95;;;6.18;;
53781;SDS011;39692;53.114;7.060;2022-10-26T02:07:02;13.70;;;6.57;;
53781;SDS011;39692;53.114;7.060;2022-10-26T02:10:00;11.65;;;6.78;;
53781;SDS011;39692;53.114;7.060;2022-10-26T02:15:16;14.73;;;6.55;;
53781;SDS011;39692;53.114;7.060;2022-10-26T02:20:25;12.93;;;6.50;;
53781;SDS011;39692;53.114;7.060;2022-10-26T02:22:54;12.18;;;7.10;;
53781;SDS011;39692;53.114;7.060;2022-10-26T02:25:26;12.48;;;6.78;;
53781;SDS011;39692;53.114;7.060;2022-10-26T02:27:56;16.02;;;7.70;;
53781;SDS011;39692;53.114;7.060;2022-10-26T02:30:28;10.98;;;6.55;;
53781;SDS011;39692;53.114;7.060;2022-10-26T02:32:54;11.45;;;7.68;;
53781;SDS011;39692;53.114;7.060;2022-10-26T02:35:24;15.88;;;6.60;;
53781;SDS011;39692;53.114;7.060;2022-10-26T02:37:52;12.45;;;7.10;;
53781;SDS011;39692;53.114;7.060;2022-10-26T02:40:23;10.27;;;6.15;;
53781;SDS011;39692;53.114;7.060;2022-10-26T02:42:51;12.35;;;6.95;;
53781;SDS011;39692;53.114;7.060;2022-10-26T02:45:20;11.23;;;6.45;;
53781;SDS011;39692;53.114;7.060;2022-10-26T02:47:52;10.65;;;6.90;;
53781;SDS011;39692;53.114;7.060;2022-10-26T02:50:19;12.65;;;7.45;;
53781;SDS011;39692;53.114;7.060;2022-10-26T02:52:54;17.40;;;6.95;;
53781;SDS011;39692;53.114;7.060;2022-10-26T02:55:42;11.90;;;7.50;;
53781;SDS011;39692;53.114;7.060;2022-10-26T02:58:23;16.50;;;8.68;;
53781;SDS011;39692;53.114;7.060;2022-10-26T03:00:53;18.48;;;7.80;;
53781;SDS011;39692;53.114;7.060;2022-10-26T03:03:19;11.38;;;7.55;;
53781;SDS011;39692;53.114;7.060;2022-10-26T03:05:45;13.98;;;8.50;;
53781;SDS011;39692;53.114;7.060;2022-10-26T03:08:11;12.27;;;7.45;;
53781;SDS011;39692;53.114;7.060;2022-10-26T03:10:41;13.15;;;8.02;;
53781;SDS011;39692;53.114;7.060;2022-10-26T03:13:09;16.08;;;8.10;;
53781;SDS011;39692;53.114;7.060;2022-10-26T03:15:36;15.70;;;8.20;;
53781;SDS011;39692;53.114;7.060;2022-10-26T03:18:02;17.08;;;8.27;;
53781;SDS011;39692;53.114;7.060;2022-10-26T03:20:29;12.27;;;7.75;;
53781;SDS011;39692;53.114;7.060;2022-10-26T03:22:54;16.90;;;9.43;;
53781;SDS011;39692;53.114;7.060;2022-10-26T03:25:21;19.17;;;8.98;;
53781;SDS011;39692;53.114;7.060;2022-10-26T03:27:55;13.30;;;7.60;;
53781;SDS011;39692;53.114;7.060;2022-10-26T03:30:25;15.02;;;8.98;;
53781;SDS011;39692;53.114;7.060;2022-10-26T03:32:52;14.55;;;8.63;;
53781;SDS011;39692;53.114;7.060;2022-10-26T03:35:17;14.95;;;8.10;;
53781;SDS011;39692;53.114;7.060;2022-10-26T03:37:43;13.90;;;7.60;;
53781;SDS011;39692;53.114;7.060;2022-10-26T03:40:09;16.38;;;9.27;;
53781;SDS011;39692;53.114;7.060;2022-10-26T03:42:35;14.05;;;9.52;;
53781;SDS011;39692;53.114;7.060;2022-10-26T03:45:01;17.85;;;8.95;;
53781;SDS011;39692;53.114;7.060;2022-10-26T03:47:28;13.70;;;7.72;;
53781;SDS011;39692;53.114;7.060;2022-10-26T03:49:53;11.13;;;7.47;;
53781;SDS011;39692;53.114;7.060;2022-10-26T03:52:19;16.45;;;7.40;;
53781;SDS011;39692;53.114;7.060;2022-10-26T03:54:45;15.05;;;8.98;;
53781;SDS011;39692;53.114;7.060;2022-10-26T03:57:10;14.20;;;8.93;;
53781;SDS011;39692;53.114;7.060;2022-10-26T03:59:36;14.07;;;8.00;;
53781;SDS011;39692;53.114;7.060;2022-10-26T04:02:02;13.13;;;7.85;;
53781;SDS011;39692;53.114;7.060;2022-10-26T04:04:28;14.00;;;7.88;;
53781;SDS011;39692;53.114;7.060;2022-10-26T04:06:54;13.95;;;8.70;;
53781;SDS011;39692;53.114;7.060;2022-10-26T04:09:20;15.75;;;8.90;;
53781;SDS011;39692;53.114;7.060;2022-10-26T04:11:46;15.13;;;8.05;;
53781;SDS011;39692;53.114;7.060;2022-10-26T04:14:12;16.25;;;8.82;;
53781;SDS011;39692;53.114;7.060;2022-10-26T04:16:38;19.05;;;9.88;;
53781;SDS011;39692;53.114;7.060;2022-10-26T04:19:05;17.52;;;9.88;;
53781;SDS011;39692;53.114;7.060;2022-10-26T04:21:31;17.42;;;9.43;;
53781;SDS011;39692;53.114;7.060;2022-10-26T04:23:57;17.88;;;9.93;;
53781;SDS011;39692;53.114;7.060;2022-10-26T04:26:23;16.05;;;9.38;;
53781;SDS011;39692;53.114;7.060;2022-10-26T04:28:49;16.45;;;10.02;;
53781;SDS011;39692;53.114;7.060;2022-10-26T04:31:15;18.23;;;9.45;;
53781;SDS011;39692;53.114;7.060;2022-10-26T04:33:41;18.23;;;9.23;;
53781;SDS011;39692;53.114;7.060;2022-10-26T04:36:07;15.20;;;8.40;;
53781;SDS011;39692;53.114;7.060;2022-10-26T04:38:33;17.05;;;9.65;;
53781;SDS011;39692;53.114;7.060;2022-10-26T04:40:59;16.17;;;9.50;;
53781;SDS011;39692;53.114;7.060;2022-10-26T04:43:25;15.10;;;9.15;;
53781;SDS011;39692;53.114;7.060;2022-10-26T04:45:54;14.23;;;8.60;;
53781;SDS011;39692;53.114;7.060;2022-10-26T04:48:21;20.05;;;9.80;;
53781;SDS011;39692;53.114;7.060;2022-10-26T04:50:47;19.27;;;9.25;;
53781;SDS011;39692;53.114;7.060;2022-10-26T04:53:13;17.65;;;9.20;;
53781;SDS011;39692;53.114;7.060;2022-10-26T04:55:39;16.88;;;8.45;;
53781;SDS011;39692;53.114;7.060;2022-10-26T04:58:05;16.23;;;8.52;;
53781;SDS011;39692;53.114;7.060;2022-10-26T05:00:31;19.27;;;8.93;;
53781;SDS011;39692;53.114;7.060;2022-10-26T05:02:58;14.07;;;7.90;;
53781;SDS011;39692;53.114;7.060;2022-10-26T05:05:24;15.80;;;8.43;;
53781;SDS011;39692;53.114;7.060;2022-10-26T05:07:53;17.77;;;9.30;;
53781;SDS011;39692;53.114;7.060;2022-10-26T05:10:20;16.40;;;8.55;;
53781;SDS011;39692;53.114;7.060;2022-10-26T05:12:50;15.30;;;8.48;;
53781;SDS011;39692;53.114;7.060;2022-10-26T05:15:16;19.05;;;8.73;;
53781;SDS011;39692;53.114;7.060;2022-10-26T05:17:42;15.10;;;8.30;;
53781;SDS011;39692;53.114;7.060;2022-10-26T05:20:08;16.42;;;7.78;;
53781;SDS011;39692;53.114;7.060;2022-10-26T05:22:37;15.35;;;8.05;;
53781;SDS011;39692;53.114;7.060;2022-10-26T05:25:03;15.35;;;7.32;;
53781;SDS011;39692;53.114;7.060;2022-10-26T05:27:29;12.90;;;8.40;;
53781;SDS011;39692;53.114;7.060;2022-10-26T05:29:55;16.65;;;8.38;;
53781;SDS011;39692;53.114;7.060;2022-10-26T05:32:21;16.08;;;9.30;;
53781;SDS011;39692;53.114;7.060;2022-10-26T05:34:47;13.95;;;7.88;;
53781;SDS011;39692;53.114;7.060;2022-10-26T05:37:14;14.30;;;8.05;;
53781;SDS011;39692;53.114;7.060;2022-10-26T05:39:40;14.45;;;7.78;;
53781;SDS011;39692;53.114;7.060;2022-10-26T05:42:07;14.93;;;8.02;;
53781;SDS011;39692;53.114;7.060;2022-10-26T05:44:33;12.73;;;7.07;;
53781;SDS011;39692;53.114;7.060;2022-10-26T05:46:59;17.63;;;7.53;;
53781;SDS011;39692;53.114;7.060;2022-10-26T05:49:25;15.85;;;7.65;;
53781;SDS011;39692;53.114;7.060;2022-10-26T05:51:51;14.45;;;6.97;;
53781;SDS011;39692;53.114;7.060;2022-10-26T05:54:17;15.07;;;8.93;;
53781;SDS011;39692;53.114;7.060;2022-10-26T05:56:43;13.18;;;7.38;;
53781;SDS011;39692;53.114;7.060;2022-10-26T05:59:14;14.77;;;7.10;;
53781;SDS011;39692;53.114;7.060;2022-10-26T06:04:16;15.80;;;7.97;;
53781;SDS011;39692;53.114;7.060;2022-10-26T06:06:45;13.10;;;7.10;;
53781;SDS011;39692;53.114;7.060;2022-10-26T06:09:13;13.38;;;7.55;;
53781;SDS011;39692;53.114;7.060;2022-10-26T06:11:39;10.35;;;6.22;;
53781;SDS011;39692;53.114;7.060;2022-10-26T06:14:05;10.23;;;6.80;;
53781;SDS011;39692;53.114;7.060;2022-10-26T06:19:02;13.85;;;7.38;;
53781;SDS011;39692;53.114;7.060;2022-10-26T06:26:41;15.85;;;7.72;;
53781;SDS011;39692;53.114;7.060;2022-10-26T06:31:42;13.15;;;6.63;;
53781;SDS011;39692;53.114;7.060;2022-10-26T06:34:08;13.25;;;6.93;;
53781;SDS011;39692;53.114;7.060;2022-10-26T06:36:36;11.20;;;6.25;;
53781;SDS011;39692;53.114;7.060;2022-10-26T06:39:06;10.70;;;6.95;;
53781;SDS011;39692;53.114;7.060;2022-10-26T06:41:33;12.23;;;6.90;;
53781;SDS011;39692;53.114;7.060;2022-10-26T06:43:59;11.40;;;7.40;;
53781;SDS011;39692;53.114;7.060;2022-10-26T06:51:51;11.88;;;6.95;;
53781;SDS011;39692;53.114;7.060;2022-10-26T06:54:22;11.15;;;6.47;;
53781;SDS011;39692;53.114;7.060;2022-10-26T06:56:49;10.95;;;6.28;;
53781;SDS011;39692;53.114;7.060;2022-10-26T06:59:24;10.40;;;6.05;;
53781;SDS011;39692;53.114;7.060;2022-10-26T07:01:54;7.93;;;5.00;;
53781;SDS011;39692;53.114;7.060;2022-10-26T07:04:20;12.70;;;6.15;;
53781;SDS011;39692;53.114;7.060;2022-10-26T07:06:46;15.40;;;6.55;;
53781;SDS011;39692;53.114;7.060;2022-10-26T07:09:12;12.98;;;5.45;;
53781;SDS011;39692;53.114;7.060;2022-10-26T07:11:38;8.30;;;5.13;;
53781;SDS011;39692;53.114;7.060;2022-10-26T07:14:04;11.07;;;6.30;;
53781;SDS011;39692;53.114;7.060;2022-10-26T07:16:30;10.70;;;5.55;;
53781;SDS011;39692;53.114;7.060;2022-10-26T07:18:56;10.10;;;6.03;;
53781;SDS011;39692;53.114;7.060;2022-10-26T07:21:23;13.23;;;6.18;;
53781;SDS011;39692;53.114;7.060;2022-10-26T07:23:49;11.07;;;5.68;;
53781;SDS011;39692;53.114;7.060;2022-10-26T07:26:16;11.55;;;6.13;;
53781;SDS011;39692;53.114;7.060;2022-10-26T07:28:42;10.57;;;6.25;;
53781;SDS011;39692;53.114;7.060;2022-10-26T07:31:08;11.40;;;5.75;;
53781;SDS011;39692;53.114;7.060;2022-10-26T07:33:34;10.95;;;6.18;;
53781;SDS011;39692;53.114;7.060;2022-10-26T07:36:00;12.20;;;5.60;;
53781;SDS011;39692;53.114;7.060;2022-10-26T07:38:26;8.00;;;5.68;;
53781;SDS011;39692;53.114;7.060;2022-10-26T07:40:52;8.60;;;5.90;;
53781;SDS011;39692;53.114;7.060;2022-10-26T07:43:19;11.00;;;6.95;;
53781;SDS011;39692;53.114;7.060;2022-10-26T07:45:48;8.77;;;5.28;;
53781;SDS011;39692;53.114;7.060;2022-10-26T07:48:15;11.52;;;6.72;;
53781;SDS011;39692;53.114;7.060;2022-10-26T07:50:41;10.48;;;6.43;;
53781;SDS011;39692;53.114;7.060;2022-10-26T07:53:07;9.02;;;5.85;;
53781;SDS011;39692;53.114;7.060;2022-10-26T07:55:33;9.38;;;5.85;;
53781;SDS011;39692;53.114;7.060;2022-10-26T07:57:59;8.70;;;5.70;;
53781;SDS011;39692;53.114;7.060;2022-10-26T08:00:25;8.02;;;5.25;;
53781;SDS011;39692;53.114;7.060;2022-10-26T08:02:52;14.57;;;6.10;;
53781;SDS011;39692;53.114;7.060;2022-10-26T08:05:18;12.13;;;6.47;;
53781;SDS011;39692;53.114;7.060;2022-10-26T08:07:44;10.35;;;5.97;;
53781;SDS011;39692;53.114;7.060;2022-10-26T08:10:11;11.57;;;6.63;;
53781;SDS011;39692;53.114;7.060;2022-10-26T08:12:37;10.18;;;7.32;;
53781;SDS011;39692;53.114;7.060;2022-10-26T08:15:04;8.95;;;7.25;;
53781;SDS011;39692;53.114;7.060;2022-10-26T08:17:30;8.25;;;6.43;;
53781;SDS011;39692;53.114;7.060;2022-10-26T08:19:56;9.50;;;6.82;;
53781;SDS011;39692;53.114;7.060;2022-10-26T08:22:22;8.38;;;6.03;;
53781;SDS011;39692;53.114;7.060;2022-10-26T08:24:48;7.38;;;5.80;;
53781;SDS011;39692;53.114;7.060;2022-10-26T08:27:14;7.05;;;5.30;;
53781;SDS011;39692;53.114;7.060;2022-10-26T08:29:40;10.55;;;5.63;;
53781;SDS011;39692;53.114;7.060;2022-10-26T08:32:06;8.80;;;6.22;;
53781;SDS011;39692;53.114;7.060;2022-10-26T08:34:33;7.53;;;5.30;;
53781;SDS011;39692;53.114;7.060;2022-10-26T08:36:59;9.93;;;5.30;;
53781;SDS011;39692;53.114;7.060;2022-10-26T08:39:25;7.60;;;5.10;;
53781;SDS011;39692;53.114;7.060;2022-10-26T08:42:06;9.82;;;5.55;;
53781;SDS011;39692;53.114;7.060;2022-10-26T08:44:41;8.65;;;5.30;;
53781;SDS011;39692;53.114;7.060;2022-10-26T08:52:08;9.10;;;5.13;;
53781;SDS011;39692;53.114;7.060;2022-10-26T08:54:37;6.78;;;5.22;;
53781;SDS011;39692;53.114;7.060;2022-10-26T09:02:12;9.73;;;4.75;;
53781;SDS011;39692;53.114;7.060;2022-10-26T09:04:38;7.82;;;4.18;;
53781;SDS011;39692;53.114;7.060;2022-10-26T09:07:08;7.20;;;4.60;;
53781;SDS011;39692;53.114;7.060;2022-10-26T09:09:40;6.70;;;4.43;;
53781;SDS011;39692;53.114;7.060;2022-10-26T09:22:43;6.32;;;4.03;;
53781;SDS011;39692;53.114;7.060;2022-10-26T09:25:20;8.48;;;5.43;;
53781;SDS011;39692;53.114;7.060;2022-10-26T09:27:47;8.38;;;4.28;;
53781;SDS011;39692;53.114;7.060;2022-10-26T09:30:16;8.25;;;4.72;;
53781;SDS011;39692;53.114;7.060;2022-10-26T09:32:45;6.30;;;4.03;;
53781;SDS011;39692;53.114;7.060;2022-10-26T09:35:19;8.98;;;5.32;;
53781;SDS011;39692;53.114;7.060;2022-10-26T09:37:47;6.45;;;4.20;;
53781;SDS011;39692;53.114;7.060;2022-10-26T09:40:17;6.53;;;4.18;;
53781;SDS011;39692;53.114;7.060;2022-10-26T09:43:00;9.43;;;4.88;;
53781;SDS011;39692;53.114;7.060;2022-10-26T09:45:32;9.30;;;4.40;;
53781;SDS011;39692;53.114;7.060;2022-10-26T09:48:03;10.02;;;4.53;;
53781;SDS011;39692;53.114;7.060;2022-10-26T09:50:34;5.85;;;3.88;;
53781;SDS011;39692;53.114;7.060;2022-10-26T09:53:01;7.40;;;4.00;;
53781;SDS011;39692;53.114;7.060;2022-10-26T09:55:28;6.55;;;4.00;;
53781;SDS011;39692;53.114;7.060;2022-10-26T09:57:55;5.22;;;3.88;;
53781;SDS011;39692;53.114;7.060;2022-10-26T10:00:22;5.45;;;3.35;;
53781;SDS011;39692;53.114;7.060;2022-10-26T10:02:50;6.78;;;3.83;;
53781;SDS011;39692;53.114;7.060;2022-10-26T10:05:24;8.90;;;4.03;;
53781;SDS011;39692;53.114;7.060;2022-10-26T10:07:51;5.70;;;3.67;;
53781;SDS011;39692;53.114;7.060;2022-10-26T10:10:18;7.28;;;3.42;;
53781;SDS011;39692;53.114;7.060;2022-10-26T10:12:45;5.75;;;3.25;;
53781;SDS011;39692;53.114;7.060;2022-10-26T10:15:29;4.85;;;3.60;;
53781;SDS011;39692;53.114;7.060;2022-10-26T10:17:55;4.70;;;3.58;;
53781;SDS011;39692;53.114;7.060;2022-10-26T10:20:29;5.20;;;3.50;;
53781;SDS011;39692;53.114;7.060;2022-10-26T10:22:57;5.63;;;3.33;;
53781;SDS011;39692;53.114;7.060;2022-10-26T10:25:33;9.75;;;3.60;;
53781;SDS011;39692;53.114;7.060;2022-10-26T10:28:00;6.50;;;3.28;;
53781;SDS011;39692;53.114;7.060;2022-10-26T10:30:30;7.38;;;3.40;;
53781;SDS011;39692;53.114;7.060;2022-10-26T10:33:07;4.90;;;3.30;;
53781;SDS011;39692;53.114;7.060;2022-10-26T10:35:35;5.13;;;3.20;;
53781;SDS011;39692;53.114;7.060;2022-10-26T10:38:03;6.88;;;3.60;;
53781;SDS011;39692;53.114;7.060;2022-10-26T10:40:29;4.90;;;3.00;;
53781;SDS011;39692;53.114;7.060;2022-10-26T10:43:03;6.40;;;3.20;;
53781;SDS011;39692;53.114;7.060;2022-10-26T10:48:13;5.63;;;2.90;;
53781;SDS011;39692;53.114;7.060;2022-10-26T10:56:00;9.25;;;3.28;;
53781;SDS011;39692;53.114;7.060;2022-10-26T10:58:32;5.88;;;2.90;;
53781;SDS011;39692;53.114;7.060;2022-10-26T11:01:01;7.97;;;2.80;;
53781;SDS011;39692;53.114;7.060;2022-10-26T11:03:31;5.05;;;2.60;;
53781;SDS011;39692;53.114;7.060;2022-10-26T11:06:09;4.82;;;2.60;;
53781;SDS011;39692;53.114;7.060;2022-10-26T11:11:11;5.85;;;2.85;;
53781;SDS011;39692;53.114;7.060;2022-10-26T11:13:40;5.93;;;2.83;;
53781;SDS011;39692;53.114;7.060;2022-10-26T11:16:11;5.75;;;2.88;;
53781;SDS011;39692;53.114;7.060;2022-10-26T11:18:48;5.95;;;2.65;;
53781;SDS011;39692;53.114;7.060;2022-10-26T11:21:29;5.82;;;2.65;;
53781;SDS011;39692;53.114;7.060;2022-10-26T11:24:02;5.93;;;2.58;;
53781;SDS011;39692;53.114;7.060;2022-10-26T11:31:43;5.97;;;2.63;;
53781;SDS011;39692;53.114;7.060;2022-10-26T11:36:40;8.15;;;2.55;;
53781;SDS011;39692;53.114;7.060;2022-10-26T11:39:15;4.40;;;2.40;;
53781;SDS011;39692;53.114;7.060;2022-10-26T11:41:46;8.05;;;2.50;;
53781;SDS011;39692;53.114;7.060;2022-10-26T11:46:44;8.35;;;3.10;;
53781;SDS011;39692;53.114;7.060;2022-10-26T11:51:53;4.20;;;2.47;;
53781;SDS011;39692;53.114;7.060;2022-10-26T11:54:24;6.07;;;2.72;;
53781;SDS011;39692;53.114;7.060;2022-10-26T11:56:53;4.43;;;2.42;;
53781;SDS011;39692;53.114;7.060;2022-10-26T11:59:24;5.43;;;2.33;;
53781;SDS011;39692;53.114;7.060;2022-10-26T12:01:53;5.93;;;2.60;;
53781;SDS011;39692;53.114;7.060;2022-10-26T12:04:20;5.50;;;2.40;;
53781;SDS011;39692;53.114;7.060;2022-10-26T12:06:47;6.07;;;2.60;;
53781;SDS011;39692;53.114;7.060;2022-10-26T12:09:17;4.90;;;2.72;;
53781;SDS011;39692;53.114;7.060;2022-10-26T12:11:49;5.63;;;2.60;;
53781;SDS011;39692;53.114;7.060;2022-10-26T12:14:25;5.97;;;2.85;;
53781;SDS011;39692;53.114;7.060;2022-10-26T12:16:55;5.05;;;2.50;;
53781;SDS011;39692;53.114;7.060;2022-10-26T12:19:30;6.38;;;2.63;;
53781;SDS011;39692;53.114;7.060;2022-10-26T12:21:58;6.72;;;2.97;;
53781;SDS011;39692;53.114;7.060;2022-10-26T12:24:29;7.05;;;2.75;;
53781;SDS011;39692;53.114;7.060;2022-10-26T12:27:03;8.15;;;3.10;;
53781;SDS011;39692;53.114;7.060;2022-10-26T12:29:30;5.80;;;3.03;;
53781;SDS011;39692;53.114;7.060;2022-10-26T12:31:57;5.75;;;3.10;;
53781;SDS011;39692;53.114;7.060;2022-10-26T12:39:26;5.20;;;3.15;;
53781;SDS011;39692;53.114;7.060;2022-10-26T12:41:57;6.82;;;2.88;;
53781;SDS011;39692;53.114;7.060;2022-10-26T12:44:39;7.18;;;2.80;;
53781;SDS011;39692;53.114;7.060;2022-10-26T12:47:06;4.55;;;2.53;;
53781;SDS011;39692;53.114;7.060;2022-10-26T12:52:26;7.07;;;3.13;;
53781;SDS011;39692;53.114;7.060;2022-10-26T13:00:23;6.95;;;3.20;;
53781;SDS011;39692;53.114;7.060;2022-10-26T13:13:27;8.45;;;3.45;;
53781;SDS011;39692;53.114;7.060;2022-10-26T13:15:55;8.15;;;3.38;;
53781;SDS011;39692;53.114;7.060;2022-10-26T13:18:22;7.25;;;2.83;;
53781;SDS011;39692;53.114;7.060;2022-10-26T13:20:59;8.18;;;3.30;;
53781;SDS011;39692;53.114;7.060;2022-10-26T13:23:28;8.02;;;3.35;;
53781;SDS011;39692;53.114;7.060;2022-10-26T13:30:57;6.47;;;3.40;;
53781;SDS011;39692;53.114;7.060;2022-10-26T13:33:24;7.68;;;3.67;;
53781;SDS011;39692;53.114;7.060;2022-10-26T13:35:53;7.50;;;3.40;;
53781;SDS011;39692;53.114;7.060;2022-10-26T13:38:21;6.97;;;2.95;;
53781;SDS011;39692;53.114;7.060;2022-10-26T13:40:49;9.00;;;3.38;;
53781;SDS011;39692;53.114;7.060;2022-10-26T13:43:20;5.75;;;3.75;;
53781;SDS011;39692;53.114;7.060;2022-10-26T13:45:54;5.20;;;3.15;;
53781;SDS011;39692;53.114;7.060;2022-10-26T13:48:37;7.90;;;3.80;;
53781;SDS011;39692;53.114;7.060;2022-10-26T13:51:23;6.43;;;3.45;;
53781;SDS011;39692;53.114;7.060;2022-10-26T13:54:00;6.60;;;3.60;;
53781;SDS011;39692;53.114;7.060;2022-10-26T13:56:39;8.05;;;3.58;;
53781;SDS011;39692;53.114;7.060;2022-10-26T13:59:09;7.65;;;3.85;;
53781;SDS011;39692;53.114;7.060;2022-10-26T14:01:35;4.82;;;3.42;;
53781;SDS011;39692;53.114;7.060;2022-10-26T14:04:14;6.55;;;4.00;;
53781;SDS011;39692;53.114;7.060;2022-10-26T14:06:41;7.50;;;4.03;;
53781;SDS011;39692;53.114;7.060;2022-10-26T14:09:13;7.88;;;3.60;;
53781;SDS011;39692;53.114;7.060;2022-10-26T14:11:46;5.72;;;3.63;;
53781;SDS011;39692;53.114;7.060;2022-10-26T14:14:13;7.10;;;3.85;;
53781;SDS011;39692;53.114;7.060;2022-10-26T14:16:41;8.77;;;3.78;;
53781;SDS011;39692;53.114;7.060;2022-10-26T14:19:21;16.65;;;4.47;;
53781;SDS011;39692;53.114;7.060;2022-10-26T14:21:50;8.27;;;3.83;;
53781;SDS011;39692;53.114;7.060;2022-10-26T14:24:20;10.93;;;5.00;;
53781;SDS011;39692;53.114;7.060;2022-10-26T14:26:46;8.90;;;4.47;;
53781;SDS011;39692;53.114;7.060;2022-10-26T14:29:17;7.72;;;4.80;;
53781;SDS011;39692;53.114;7.060;2022-10-26T14:31:44;9.35;;;4.47;;
53781;SDS011;39692;53.114;7.060;2022-10-26T14:34:10;8.30;;;4.63;;
53781;SDS011;39692;53.114;7.060;2022-10-26T14:36:45;7.70;;;4.70;;
53781;SDS011;39692;53.114;7.060;2022-10-26T14:39:17;7.60;;;4.95;;
53781;SDS011;39692;53.114;7.060;2022-10-26T14:41:44;9.82;;;4.53;;
53781;SDS011;39692;53.114;7.060;2022-10-26T14:44:17;10.82;;;4.88;;
53781;SDS011;39692;53.114;7.060;2022-10-26T14:46:45;8.57;;;4.60;;
53781;SDS011;39692;53.114;7.060;2022-10-26T14:49:24;8.77;;;4.70;;
53781;SDS011;39692;53.114;7.060;2022-10-26T14:51:55;7.78;;;4.63;;
53781;SDS011;39692;53.114;7.060;2022-10-26T14:54:24;9.55;;;4.85;;
53781;SDS011;39692;53.114;7.060;2022-10-26T14:56:50;6.63;;;4.90;;
53781;SDS011;39692;53.114;7.060;2022-10-26T14:59:19;7.90;;;4.82;;
53781;SDS011;39692;53.114;7.060;2022-10-26T15:04:55;10.98;;;4.50;;
53781;SDS011;39692;53.114;7.060;2022-10-26T15:07:22;9.45;;;5.00;;
53781;SDS011;39692;53.114;7.060;2022-10-26T15:09:51;10.45;;;5.20;;
53781;SDS011;39692;53.114;7.060;2022-10-26T15:12:18;9.98;;;5.55;;
53781;SDS011;39692;53.114;7.060;2022-10-26T15:14:47;8.05;;;4.75;;
53781;SDS011;39692;53.114;7.060;2022-10-26T15:17:19;10.63;;;5.22;;
53781;SDS011;39692;53.114;7.060;2022-10-26T15:19:51;9.10;;;4.82;;
53781;SDS011;39692;53.114;7.060;2022-10-26T15:22:20;7.53;;;5.18;;
53781;SDS011;39692;53.114;7.060;2022-10-26T15:24:49;9.18;;;5.22;;
53781;SDS011;39692;53.114;7.060;2022-10-26T15:27:18;9.90;;;5.03;;
53781;SDS011;39692;53.114;7.060;2022-10-26T15:29:45;8.85;;;5.53;;
53781;SDS011;39692;53.114;7.060;2022-10-26T15:37:43;7.65;;;5.43;;
53781;SDS011;39692;53.114;7.060;2022-10-26T15:40:10;8.27;;;5.68;;
53781;SDS011;39692;53.114;7.060;2022-10-26T15:42:37;9.73;;;6.50;;
53781;SDS011;39692;53.114;7.060;2022-10-26T15:45:12;10.50;;;6.15;;
53781;SDS011;39692;53.114;7.060;2022-10-26T15:47:43;10.43;;;5.72;;
53781;SDS011;39692;53.114;7.060;2022-10-26T15:50:14;10.18;;;6.18;;
53781;SDS011;39692;53.114;7.060;2022-10-26T15:52:41;11.05;;;5.93;;
53781;SDS011;39692;53.114;7.060;2022-10-26T15:55:08;8.93;;;6.32;;
53781;SDS011;39692;53.114;7.060;2022-10-26T15:57:34;9.30;;;6.13;;
53781;SDS011;39692;53.114;7.060;2022-10-26T16:00:01;11.70;;;6.35;;
53781;SDS011;39692;53.114;7.060;2022-10-26T16:02:28;9.50;;;6.05;;
53781;SDS011;39692;53.114;7.060;2022-10-26T16:04:53;7.95;;;6.57;;
53781;SDS011;39692;53.114;7.060;2022-10-26T16:07:20;9.05;;;6.30;;
53781;SDS011;39692;53.114;7.060;2022-10-26T16:09:49;8.77;;;6.72;;
53781;SDS011;39692;53.114;7.060;2022-10-26T16:12:15;13.35;;;7.95;;
53781;SDS011;39692;53.114;7.060;2022-10-26T16:14:41;8.73;;;7.30;;
53781;SDS011;39692;53.114;7.060;2022-10-26T16:17:07;10.48;;;7.88;;
53781;SDS011;39692;53.114;7.060;2022-10-26T16:19:33;9.25;;;7.80;;
53781;SDS011;39692;53.114;7.060;2022-10-26T16:21:59;15.15;;;7.60;;
53781;SDS011;39692;53.114;7.060;2022-10-26T16:24:26;8.35;;;6.82;;
53781;SDS011;39692;53.114;7.060;2022-10-26T16:26:55;13.38;;;8.35;;
53781;SDS011;39692;53.114;7.060;2022-10-26T16:29:21;10.70;;;8.25;;
53781;SDS011;39692;53.114;7.060;2022-10-26T16:31:47;12.25;;;8.10;;
53781;SDS011;39692;53.114;7.060;2022-10-26T16:34:13;11.57;;;8.00;;
53781;SDS011;39692;53.114;7.060;2022-10-26T16:36:39;12.02;;;8.30;;
53781;SDS011;39692;53.114;7.060;2022-10-26T16:39:05;11.43;;;8.48;;
53781;SDS011;39692;53.114;7.060;2022-10-26T16:41:31;9.90;;;8.90;;
53781;SDS011;39692;53.114;7.060;2022-10-26T16:43:58;10.35;;;8.23;;
53781;SDS011;39692;53.114;7.060;2022-10-26T16:46:23;9.95;;;7.85;;
53781;SDS011;39692;53.114;7.060;2022-10-26T16:48:50;12.23;;;8.63;;
53781;SDS011;39692;53.114;7.060;2022-10-26T16:51:17;13.45;;;9.05;;
53781;SDS011;39692;53.114;7.060;2022-10-26T16:53:45;11.90;;;8.27;;
53781;SDS011;39692;53.114;7.060;2022-10-26T16:56:13;9.70;;;8.38;;
53781;SDS011;39692;53.114;7.060;2022-10-26T16:58:42;11.00;;;8.55;;